Time;durP1;ratioP1;P1;durP2;ratioP2;P2;SDS_P1;SDS_P2;PMS_P1;PMS_P2;Temp;Humidity;BMP_temperature;BMP_pressure;BME280_temperature;BME280_humidity;BME280_pressure;Samples;Min_cycle;Max_cycle;Signal;HPM_P1;HPM_P2
2023/08/08 00:02:09;;;;;;;;;0.80;0.80;;;;;12.98;57.33;99492.84;5051755;28;9006;-73
2023/08/08 00:04:39;;;;;;;;;0.00;0.00;;;;;12.92;57.94;99493.91;5067066;28;8942;-75
2023/08/08 00:07:08;;;;;;;;;0.00;0.00;;;;;12.85;58.22;99495.00;5051578;28;8849;-73
2023/08/08 00:09:37;;;;;;;;;0.00;0.00;;;;;12.84;58.31;99493.22;5033349;28;8874;-75
2023/08/08 00:12:07;;;;;;;;;0.40;0.40;;;;;12.79;58.56;99493.38;5051658;28;8887;-74
2023/08/08 00:14:36;;;;;;;;;0.00;0.00;;;;;12.79;58.81;99487.22;5016909;28;8852;-73
2023/08/08 00:17:05;;;;;;;;;0.60;0.60;;;;;12.73;59.13;99497.06;5051533;28;8907;-72
2023/08/08 00:19:34;;;;;;;;;0.00;0.00;;;;;12.67;59.61;99488.47;5050283;28;8873;-74
2023/08/08 00:22:04;;;;;;;;;0.00;0.00;;;;;12.90;59.21;99488.69;5051493;28;8930;-74
2023/08/08 00:24:33;;;;;;;;;0.40;0.00;;;;;12.85;59.47;99487.94;5071038;28;8858;-73
2023/08/08 00:27:02;;;;;;;;;0.00;0.00;;;;;12.93;59.58;99485.06;5069942;28;8866;-73
2023/08/08 00:29:32;;;;;;;;;0.00;0.00;;;;;13.12;59.16;99480.91;5071410;28;8946;-74
2023/08/08 00:32:00;;;;;;;;;0.00;0.00;;;;;13.39;58.68;99485.34;5085362;28;8922;-74
2023/08/08 00:34:30;;;;;;;;;0.00;0.00;;;;;13.30;58.97;99492.66;5048968;28;8854;-73
2023/08/08 00:36:58;;;;;;;;;0.00;0.00;;;;;13.39;58.59;99486.22;5031964;28;9561;-74
2023/08/08 00:39:29;;;;;;;;;0.40;0.00;;;;;13.56;57.93;99485.63;5048588;28;8838;-73
2023/08/08 00:41:57;;;;;;;;;0.00;0.00;;;;;13.64;57.82;99488.03;5048461;28;8845;-74
2023/08/08 00:44:27;;;;;;;;;0.00;0.00;;;;;13.68;57.88;99487.84;4992547;28;8843;-71
2023/08/08 00:46:56;;;;;;;;;1.80;0.00;;;;;13.62;57.57;99482.78;5008376;28;8978;-74
2023/08/08 00:49:25;;;;;;;;;0.20;0.20;;;;;13.78;57.64;99487.53;4970695;28;8859;-73
2023/08/08 00:51:54;;;;;;;;;0.00;0.00;;;;;13.75;57.23;99491.16;5028406;28;8864;-73
2023/08/08 00:54:23;;;;;;;;;0.20;0.20;;;;;14.05;56.71;99494.53;5028499;28;8938;-72
2023/08/08 00:56:53;;;;;;;;;0.00;0.00;;;;;14.14;56.25;99498.59;5008492;28;8954;-74
2023/08/08 00:59:24;;;;;;;;;0.00;0.00;;;;;13.98;56.52;99494.78;5008339;28;8879;-73
2023/08/08 01:01:53;;;;;;;;;0.00;0.00;;;;;14.01;56.54;99497.31;5008436;28;8963;-74
2023/08/08 01:04:27;;;;;;;;;0.00;0.00;;;;;14.08;56.43;99497.03;5011977;28;8931;-75
2023/08/08 01:07:04;;;;;;;;;0.00;0.00;;;;;14.17;55.79;99492.31;5050116;28;8838;-74
2023/08/08 01:09:38;;;;;;;;;1.00;0.00;;;;;14.40;55.29;99494.13;5047558;28;8951;-74
2023/08/08 01:12:12;;;;;;;;;0.00;0.00;;;;;14.07;55.88;99495.31;5028113;28;8849;-73
2023/08/08 01:14:43;;;;;;;;;0.00;0.00;;;;;13.69;57.17;99496.63;5028358;28;8834;-73
2023/08/08 01:17:13;;;;;;;;;0.00;0.00;;;;;14.12;56.94;99484.56;5011484;28;8853;-73
2023/08/08 01:19:42;;;;;;;;;0.00;0.00;;;;;14.07;56.17;99497.09;5044750;28;9004;-74
2023/08/08 01:22:23;;;;;;;;;0.00;0.00;;;;;14.37;55.31;99491.59;5031373;28;8874;-73
2023/08/08 01:24:55;;;;;;;;;1.00;1.00;;;;;14.69;54.66;99500.94;5031720;28;8889;-74
2023/08/08 01:27:24;;;;;;;;;0.00;0.00;;;;;14.73;54.30;99493.78;5053360;28;8842;-72
2023/08/08 01:29:54;;;;;;;;;0.60;0.60;;;;;15.03;55.24;99495.22;5081857;28;8908;-73
2023/08/08 01:32:22;;;;;;;;;0.00;0.00;;;;;15.27;53.92;99497.81;5050355;28;8857;-74
2023/08/08 01:34:52;;;;;;;;;0.80;0.00;;;;;15.50;53.88;99498.63;5082397;28;8875;-73
2023/08/08 01:37:25;;;;;;;;;0.00;0.00;;;;;15.60;53.20;99500.88;5065684;28;8870;-73
2023/08/08 01:39:58;;;;;;;;;1.00;1.00;;;;;15.59;53.28;99493.78;5048961;28;8874;-75
2023/08/08 01:42:29;;;;;;;;;0.00;0.00;;;;;15.73;52.88;99490.56;5102830;28;8846;-75
2023/08/08 01:44:58;;;;;;;;;0.00;0.00;;;;;15.82;53.10;99497.28;5081715;28;8866;-73
2023/08/08 01:47:31;;;;;;;;;0.00;0.00;;;;;15.94;52.26;99501.19;5049815;28;8930;-74
2023/08/08 01:50:00;;;;;;;;;0.00;0.00;;;;;15.78;52.22;99495.69;5082161;28;8857;-73
2023/08/08 01:52:28;;;;;;;;;0.00;0.00;;;;;15.54;52.23;99498.41;5082030;28;8853;-76
2023/08/08 01:54:58;;;;;;;;;1.00;1.00;;;;;15.60;52.68;99499.97;5065624;28;8915;-73
2023/08/08 01:57:27;;;;;;;;;0.00;0.00;;;;;15.34;52.13;99493.97;5061955;28;8834;-75
2023/08/08 01:59:56;;;;;;;;;0.00;0.00;;;;;15.02;53.20;99498.78;5035321;28;8838;-73
2023/08/08 02:02:25;;;;;;;;;2.00;0.80;;;;;14.98;52.94;99501.59;5070101;28;8865;-73
2023/08/08 02:04:55;;;;;;;;;0.00;0.00;;;;;15.02;53.16;99501.44;5034331;28;8861;-73
2023/08/08 02:07:24;;;;;;;;;0.00;0.00;;;;;15.09;52.85;99506.47;5068291;28;8884;-73
2023/08/08 02:09:53;;;;;;;;;0.00;0.00;;;;;15.16;52.81;99502.66;5035025;28;8866;-73
2023/08/08 02:12:23;;;;;;;;;1.00;1.00;;;;;15.05;52.66;99503.09;5018246;28;8874;-72
2023/08/08 02:14:52;;;;;;;;;1.40;1.00;;;;;15.03;52.73;99505.78;5067900;28;8878;-74
2023/08/08 02:17:21;;;;;;;;;0.00;0.00;;;;;15.04;52.94;99504.03;5050103;28;8936;-74
2023/08/08 02:19:52;;;;;;;;;0.00;0.00;;;;;15.05;53.05;99505.75;5049669;28;8844;-75
2023/08/08 02:22:20;;;;;;;;;0.80;0.80;;;;;15.18;52.84;99503.47;5066986;28;8872;-73
2023/08/08 02:24:49;;;;;;;;;1.00;1.00;;;;;15.21;52.30;99506.00;5067526;28;8935;-74
2023/08/08 02:27:19;;;;;;;;;1.60;1.60;;;;;15.20;52.95;99507.75;5013827;28;8964;-73
2023/08/08 02:29:49;;;;;;;;;2.00;1.00;;;;;15.02;53.43;99516.47;4997629;28;9725;-75
2023/08/08 02:32:17;;;;;;;;;0.00;0.00;;;;;15.18;53.67;99506.97;5025885;28;8836;-74
2023/08/08 02:34:47;;;;;;;;;1.00;1.00;;;;;15.14;53.00;99510.66;5066364;28;8871;-75
2023/08/08 02:37:16;;;;;;;;;1.40;1.40;;;;;15.15;53.62;99511.53;5049747;28;8922;-74
2023/08/08 02:39:45;;;;;;;;;1.00;1.00;;;;;15.35;53.04;99513.38;5049691;28;9077;-74
2023/08/08 02:42:16;;;;;;;;;1.00;1.00;;;;;15.40;53.30;99520.19;5058740;28;8889;-73
2023/08/08 02:44:45;;;;;;;;;0.60;0.00;;;;;15.35;53.05;99522.16;5046250;28;8852;-74
2023/08/08 02:47:15;;;;;;;;;1.60;1.60;;;;;15.37;52.98;99522.09;5062560;28;8855;-72
2023/08/08 02:49:46;;;;;;;;;1.00;1.00;;;;;14.89;53.78;99520.53;5026203;28;8849;-73
2023/08/08 02:52:15;;;;;;;;;1.00;1.00;;;;;15.06;53.18;99515.41;5049411;28;8991;-72
2023/08/08 02:54:44;;;;;;;;;1.00;1.00;;;;;15.20;53.21;99514.84;5066402;28;8852;-75
2023/08/08 02:57:14;;;;;;;;;1.00;1.00;;;;;15.11;52.92;99526.66;5061427;28;8870;-76
2023/08/08 02:59:44;;;;;;;;;0.40;0.40;;;;;15.00;53.17;99521.81;5067493;28;8897;-74
2023/08/08 03:02:15;;;;;;;;;1.00;1.00;;;;;15.10;53.06;99524.09;5067225;28;8865;-72
2023/08/08 03:04:44;;;;;;;;;0.40;0.40;;;;;15.09;52.82;99525.00;5068041;28;8886;-74
2023/08/08 03:07:13;;;;;;;;;1.80;1.80;;;;;15.25;52.49;99526.13;5063575;28;8885;-73
2023/08/08 03:09:42;;;;;;;;;1.00;1.00;;;;;14.73;54.26;99520.25;5047168;28;8870;-74
2023/08/08 03:12:13;;;;;;;;;0.80;0.80;;;;;14.53;54.88;99524.50;5063810;28;8980;-74
2023/08/08 03:14:42;;;;;;;;;1.20;1.20;;;;;14.63;54.95;99523.22;5084060;28;8850;-74
2023/08/08 03:17:10;;;;;;;;;1.80;1.80;;;;;14.46;55.35;99526.50;5067182;28;8842;-73
2023/08/08 03:19:41;;;;;;;;;27.20;24.40;;;;;14.60;55.45;99523.34;5100878;28;8865;-73
2023/08/08 03:22:10;;;;;;;;;2.40;1.80;;;;;13.81;58.00;99532.34;5064818;28;8873;-73
2023/08/08 03:24:40;;;;;;;;;3.60;1.00;;;;;13.94;57.93;99538.97;5067327;28;8866;-72
2023/08/08 03:27:09;;;;;;;;;2.00;2.00;;;;;14.07;57.54;99547.31;5067017;28;8877;-72
2023/08/08 03:29:38;;;;;;;;;2.60;1.20;;;;;14.19;57.40;99552.16;5066669;28;8870;-77
2023/08/08 03:32:07;;;;;;;;;2.60;2.60;;;;;14.09;57.83;99553.41;5085179;28;8861;-73
2023/08/08 03:34:36;;;;;;;;;3.00;2.00;;;;;14.24;57.40;99552.00;5069294;28;8923;-73
2023/08/08 03:37:07;;;;;;;;;1.60;1.60;;;;;14.53;56.53;99556.22;5064692;28;8878;-73
2023/08/08 03:39:37;;;;;;;;;2.00;2.00;;;;;14.78;55.96;99553.53;5066054;28;8852;-75
2023/08/08 03:42:06;;;;;;;;;2.00;2.00;;;;;14.56;56.15;99552.59;5048920;28;8852;-73
2023/08/08 03:44:35;;;;;;;;;2.00;2.00;;;;;14.36;56.50;99562.13;5049285;28;8863;-73
2023/08/08 03:47:04;;;;;;;;;2.40;2.40;;;;;14.27;56.97;99557.19;5065461;28;8974;-74
2023/08/08 03:49:47;;;;;;;;;3.00;2.00;;;;;13.67;58.60;99561.88;5048972;28;8882;-71
2023/08/08 03:52:18;;;;;;;;;21.80;21.20;;;;;13.97;58.59;99562.63;5048681;28;8844;-72
2023/08/08 03:54:47;;;;;;;;;1.00;1.00;;;;;13.43;58.06;99560.88;5059851;28;8830;-73
2023/08/08 03:57:15;;;;;;;;;1.00;1.00;;;;;13.31;58.63;99565.66;5068887;28;9030;-73
2023/08/08 03:59:44;;;;;;;;;1.00;1.00;;;;;12.98;59.63;99567.59;5025350;28;9003;-75
2023/08/08 04:02:13;;;;;;;;;1.60;1.60;;;;;12.81;59.95;99564.56;4992097;28;8934;-72
2023/08/08 04:04:43;;;;;;;;;2.20;2.20;;;;;12.94;59.67;99568.59;4989393;28;8866;-74
2023/08/08 04:07:11;;;;;;;;;2.00;2.00;;;;;12.98;59.51;99558.81;4973683;28;8839;-73
2023/08/08 04:09:42;;;;;;;;;1.20;1.20;;;;;12.80;60.34;99554.91;4989396;28;8846;-73
2023/08/08 04:12:10;;;;;;;;;2.80;1.80;;;;;12.79;60.06;99566.34;5022236;28;8890;-74
2023/08/08 04:14:39;;;;;;;;;1.40;1.40;;;;;12.92;60.26;99568.63;4989558;28;8858;-72
2023/08/08 04:17:08;;;;;;;;;1.00;1.00;;;;;12.90;60.32;99559.91;4973556;28;8971;-72
2023/08/08 04:19:37;;;;;;;;;2.00;2.00;;;;;12.89;60.52;99570.50;5006355;28;8852;-73
2023/08/08 04:22:06;;;;;;;;;3.00;3.00;;;;;12.86;60.50;99568.84;5008900;28;8879;-73
2023/08/08 04:24:35;;;;;;;;;2.80;2.80;;;;;12.96;60.96;99582.59;5025351;28;8852;-72
2023/08/08 04:27:05;;;;;;;;;2.20;1.00;;;;;13.21;60.11;99580.06;5025364;28;8852;-75
2023/08/08 04:29:34;;;;;;;;;2.40;2.40;;;;;13.36;58.50;99573.44;5024205;28;8840;-73
2023/08/08 04:32:03;;;;;;;;;5.00;4.00;;;;;13.52;58.32;99581.72;5062336;28;8880;-71
2023/08/08 04:34:32;;;;;;;;;2.40;1.60;;;;;13.49;58.35;99576.56;5067761;28;8862;-72
2023/08/08 04:37:01;;;;;;;;;4.00;3.00;;;;;13.52;58.05;99576.44;5068113;28;8823;-73
2023/08/08 04:39:30;;;;;;;;;2.20;2.20;;;;;13.84;57.10;99583.31;5068598;28;8865;-74
2023/08/08 04:41:59;;;;;;;;;2.00;2.00;;;;;13.98;55.73;99584.63;5083250;28;8971;-74
2023/08/08 04:44:29;;;;;;;;;3.00;3.00;;;;;14.14;54.85;99595.56;5070294;28;8834;-73
2023/08/08 04:46:58;;;;;;;;;1.00;1.00;;;;;14.17;55.04;99598.94;5085321;28;8962;-74
2023/08/08 04:49:28;;;;;;;;;3.60;2.80;;;;;14.17;54.54;99592.78;5091058;28;8843;-75
2023/08/08 04:51:57;;;;;;;;;2.60;1.40;;;;;14.15;54.67;99595.50;5089732;27;8940;-75
2023/08/08 04:54:26;;;;;;;;;2.00;2.00;;;;;14.05;54.75;99608.19;5072428;28;8827;-75
2023/08/08 04:56:55;;;;;;;;;3.00;2.00;;;;;13.86;55.36;99615.84;5091102;28;8878;-72
2023/08/08 04:59:24;;;;;;;;;2.60;2.60;;;;;14.15;54.53;99611.34;5069532;28;8842;-74
2023/08/08 05:01:54;;;;;;;;;3.00;3.00;;;;;13.77;55.60;99625.81;5101820;28;8850;-75
2023/08/08 05:04:23;;;;;;;;;1.80;1.80;;;;;13.93;54.52;99624.44;5071306;28;8851;-72
2023/08/08 05:06:52;;;;;;;;;1.00;1.00;;;;;13.38;55.32;99621.78;5071256;28;8858;-73
2023/08/08 05:09:24;;;;;;;;;2.00;2.00;;;;;13.54;55.08;99627.41;5070757;28;8862;-73
2023/08/08 05:11:53;;;;;;;;;5.00;2.00;;;;;13.50;54.23;99644.28;5052554;28;9639;-74
2023/08/08 05:14:22;;;;;;;;;2.60;2.60;;;;;13.78;53.31;99631.06;5082858;28;8848;-72
2023/08/08 05:16:51;;;;;;;;;1.20;1.20;;;;;14.24;52.55;99640.13;5065831;28;8837;-73
2023/08/08 05:19:21;;;;;;;;;3.80;3.00;;;;;14.42;52.20;99632.47;5050868;28;8841;-73
2023/08/08 05:21:50;;;;;;;;;3.60;2.60;;;;;14.66;50.78;99649.25;5070400;28;8854;-73
2023/08/08 05:24:20;;;;;;;;;3.80;2.60;;;;;14.56;51.11;99647.81;5050699;28;8905;-76
2023/08/08 05:26:49;;;;;;;;;1.40;1.40;;;;;13.87;51.78;99659.84;5070153;28;8838;-72
2023/08/08 05:29:18;;;;;;;;;2.60;2.60;;;;;14.24;51.74;99660.41;5069712;28;8860;-73
2023/08/08 05:31:47;;;;;;;;;2.00;2.00;;;;;14.66;50.26;99658.03;5069538;28;8848;-73
2023/08/08 05:34:16;;;;;;;;;2.60;2.60;;;;;14.74;50.53;99663.06;5069157;28;8840;-75
2023/08/08 05:36:46;;;;;;;;;2.20;2.20;;;;;15.04;49.35;99662.88;5069117;28;8868;-72
2023/08/08 05:39:15;;;;;;;;;2.00;2.00;;;;;14.17;50.74;99666.81;5069565;28;8866;-75
2023/08/08 05:41:44;;;;;;;;;2.00;2.00;;;;;14.51;50.42;99663.88;5081610;28;8857;-72
2023/08/08 05:44:13;;;;;;;;;2.60;2.60;;;;;14.63;50.91;99676.66;5065848;28;8830;-71
2023/08/08 05:46:42;;;;;;;;;2.00;2.00;;;;;14.31;51.46;99679.56;5085672;28;8862;-71
2023/08/08 05:49:11;;;;;;;;;1.20;1.00;;;;;14.73;49.95;99677.22;5069356;28;8873;-70
2023/08/08 05:51:41;;;;;;;;;2.80;2.80;;;;;14.80;49.46;99678.72;5069165;28;8992;-70
2023/08/08 05:54:12;;;;;;;;;4.40;3.00;;;;;15.39;49.06;99681.84;5073325;28;8844;-70
2023/08/08 05:56:41;;;;;;;;;2.60;2.60;;;;;15.06;48.89;99684.84;5078198;28;9516;-67
2023/08/08 05:59:10;;;;;;;;;1.60;1.60;;;;;14.61;49.79;99677.63;5069367;28;8939;-68
2023/08/08 06:01:38;;;;;;;;;1.00;1.00;;;;;14.43;50.34;99681.78;5069661;28;8865;-69
2023/08/08 06:04:07;;;;;;;;;1.40;1.40;;;;;14.46;50.89;99679.88;5068744;28;8862;-69
2023/08/08 06:06:36;;;;;;;;;2.20;1.80;;;;;14.39;50.46;99674.88;5075751;28;8929;-68
2023/08/08 06:09:05;;;;;;;;;1.00;1.00;;;;;13.99;51.22;99698.22;5074912;28;8846;-75
2023/08/08 06:11:35;;;;;;;;;1.80;1.80;;;;;13.90;51.60;99695.88;5069430;28;8931;-77
2023/08/08 06:14:04;;;;;;;;;2.00;2.00;;;;;14.16;51.07;99689.72;5068187;28;9600;-74
2023/08/08 06:16:33;;;;;;;;;1.40;1.40;;;;;14.05;51.76;99705.09;5085402;28;9000;-76
2023/08/08 06:19:03;;;;;;;;;2.00;2.00;;;;;13.90;51.74;99701.16;5069549;28;8839;-77
2023/08/08 06:21:31;;;;;;;;;3.00;1.00;;;;;13.85;51.85;99696.03;5002060;28;8897;-80
2023/08/08 06:24:00;;;;;;;;;3.00;2.00;;;;;13.93;51.60;99710.78;5069774;28;8858;-79
2023/08/08 06:26:29;;;;;;;;;2.20;2.00;;;;;14.45;50.41;99706.38;5067952;28;8931;-76
2023/08/08 06:28:59;;;;;;;;;2.00;2.00;;;;;13.97;51.36;99705.34;5068053;28;8857;-75
2023/08/08 06:31:28;;;;;;;;;2.00;2.00;;;;;14.55;50.29;99702.53;5067758;28;8979;-77
2023/08/08 06:33:57;;;;;;;;;3.20;2.80;;;;;14.78;49.50;99695.59;5069033;28;9298;-78
2023/08/08 06:36:25;;;;;;;;;4.20;4.20;;;;;15.15;49.29;99692.47;5069292;28;8865;-73
2023/08/08 06:38:54;;;;;;;;;3.20;3.20;;;;;15.06;49.25;99700.75;5069204;28;8862;-75
2023/08/08 06:41:23;;;;;;;;;2.80;2.80;;;;;14.40;51.08;99697.78;5067540;28;8889;-76
2023/08/08 06:43:53;;;;;;;;;1.40;0.40;;;;;14.59;50.79;99701.50;5068998;28;8890;-76
2023/08/08 06:46:24;;;;;;;;;5.40;4.60;;;;;14.47;50.29;99708.09;5036657;28;9594;-75
2023/08/08 06:48:56;;;;;;;;;2.80;2.80;;;;;14.14;51.93;99709.22;5047524;28;8845;-80
2023/08/08 06:51:26;;;;;;;;;2.80;2.80;;;;;14.00;51.38;99717.63;5061758;28;8866;-74
2023/08/08 06:53:55;;;;;;;;;4.40;4.40;;;;;14.13;52.10;99707.47;5068616;28;8854;-77
2023/08/08 06:56:25;;;;;;;;;1.60;1.60;;;;;13.91;51.89;99709.97;4989970;28;8853;-77
2023/08/08 06:58:54;;;;;;;;;4.20;4.00;;;;;14.21;50.87;99708.97;5066974;28;8867;-76
2023/08/08 07:01:25;;;;;;;;;4.60;4.00;;;;;14.25;50.73;99715.88;5067694;28;8842;-75
2023/08/08 07:03:54;;;;;;;;;4.00;4.00;;;;;13.96;51.50;99711.56;5066785;28;8961;-74
2023/08/08 07:06:22;;;;;;;;;3.00;2.00;;;;;14.62;50.26;99701.41;5066849;28;8854;-74
2023/08/08 07:08:51;;;;;;;;;5.60;3.00;;;;;15.28;49.28;99700.78;5069250;28;8834;-76
2023/08/08 07:11:20;;;;;;;;;1.00;1.00;;;;;15.16;49.32;99701.25;5029877;28;8870;-73
2023/08/08 07:13:49;;;;;;;;;2.60;2.60;;;;;14.96;49.50;99707.28;5046703;28;8843;-78
2023/08/08 07:16:18;;;;;;;;;0.00;0.00;;;;;14.57;49.81;99713.91;5046331;28;8859;-75
2023/08/08 07:18:48;;;;;;;;;2.40;2.40;;;;;14.51;49.28;99707.97;5046108;28;8847;-77
2023/08/08 07:21:20;;;;;;;;;6.00;5.00;;;;;14.70;49.11;99701.13;5045743;28;8867;-75
2023/08/08 07:23:49;;;;;;;;;3.40;3.40;;;;;14.63;49.13;99720.78;5045761;28;8867;-75
2023/08/08 07:26:17;;;;;;;;;4.60;4.60;;;;;14.77;49.56;99713.25;5045703;28;8870;-75
2023/08/08 07:28:46;;;;;;;;;3.40;3.40;;;;;14.85;49.63;99718.28;5046199;28;8851;-75
2023/08/08 07:31:15;;;;;;;;;4.00;4.00;;;;;15.08;49.41;99724.50;5029643;28;8856;-75
2023/08/08 07:33:44;;;;;;;;;2.20;2.20;;;;;14.95;48.80;99724.94;5046456;28;8940;-75
2023/08/08 07:36:15;;;;;;;;;4.60;4.60;;;;;15.05;49.50;99725.47;5045502;28;8986;-74
2023/08/08 07:38:44;;;;;;;;;4.80;4.20;;;;;15.08;49.33;99712.13;5029356;28;8858;-74
2023/08/08 07:41:12;;;;;;;;;3.20;3.20;;;;;14.91;49.64;99727.78;5029230;28;8852;-76
2023/08/08 07:43:41;;;;;;;;;2.80;2.40;;;;;14.62;50.11;99732.25;5067731;28;8859;-77
2023/08/08 07:46:10;;;;;;;;;3.60;3.60;;;;;14.70;50.12;99735.53;5085488;28;8851;-78
2023/08/08 07:48:40;;;;;;;;;3.00;3.00;;;;;14.61;49.27;99738.47;5069661;28;8832;-77
2023/08/08 07:51:09;;;;;;;;;2.00;2.00;;;;;14.52;49.61;99741.44;5086041;28;8847;-77
2023/08/08 07:53:39;;;;;;;;;3.00;3.00;;;;;14.55;49.86;99728.97;5052275;28;8820;-76
2023/08/08 07:56:08;;;;;;;;;2.40;2.40;;;;;14.94;48.48;99719.72;5085833;28;8844;-74
2023/08/08 07:58:37;;;;;;;;;2.00;2.00;;;;;14.58;49.23;99730.63;5069197;28;8939;-74
2023/08/08 08:01:05;;;;;;;;;4.40;3.40;;;;;14.96;49.08;99726.69;5078890;28;8891;-75
2023/08/08 08:03:35;;;;;;;;;3.20;3.20;;;;;15.17;48.54;99724.16;5049157;28;8837;-74
2023/08/08 08:06:04;;;;;;;;;2.00;2.00;;;;;14.72;49.56;99735.47;5065547;28;8842;-74
2023/08/08 08:08:33;;;;;;;;;5.00;3.80;;;;;14.91;49.01;99725.13;5065248;28;8845;-74
2023/08/08 08:11:04;;;;;;;;;3.40;2.60;;;;;15.00;48.96;99724.75;5015718;28;8857;-75
2023/08/08 08:13:33;;;;;;;;;4.40;4.40;;;;;15.36;48.15;99724.31;5065460;28;8935;-75
2023/08/08 08:18:54;;;;;;;;;4.80;3.80;;;;;15.30;47.86;99713.97;5054579;28;8889;-75
2023/08/08 08:21:23;;;;;;;;;7.20;5.80;;;;;15.53;47.90;99713.06;5070120;28;8845;-76
2023/08/08 08:23:52;;;;;;;;;8.00;7.60;;;;;15.86;47.69;99718.03;5071514;28;8846;-75
2023/08/08 08:26:22;;;;;;;;;2.80;2.80;;;;;16.50;46.64;99714.53;5071655;28;9575;-75
2023/08/08 08:28:51;;;;;;;;;3.80;3.60;;;;;17.09;45.65;99713.66;5071756;28;8850;-74
2023/08/08 08:31:19;;;;;;;;;6.00;4.80;;;;;17.48;44.47;99720.78;5071455;28;8854;-75
2023/08/08 08:33:48;;;;;;;;;3.20;3.20;;;;;16.51;45.71;99722.44;5071005;28;8850;-74
2023/08/08 08:36:17;;;;;;;;;4.40;4.40;;;;;16.30;45.38;99717.97;5071380;28;8866;-75
2023/08/08 08:38:46;;;;;;;;;4.00;4.00;;;;;16.49;45.32;99712.78;5071152;28;8888;-76
2023/08/08 08:41:19;;;;;;;;;2.60;2.60;;;;;17.16;45.24;99711.59;5071400;28;8874;-74
2023/08/08 08:43:50;;;;;;;;;1.80;1.20;;;;;17.61;44.17;99715.75;5069091;28;9016;-78
2023/08/08 08:46:23;;;;;;;;;6.20;5.00;;;;;17.90;43.19;99714.31;5069761;28;8850;-77
2023/08/08 08:48:52;;;;;;;;;4.20;3.80;;;;;18.38;42.87;99717.31;5071164;28;8834;-75
2023/08/08 08:51:22;;;;;;;;;3.20;2.00;;;;;18.75;41.99;99712.75;5068911;28;8846;-77
2023/08/08 08:53:51;;;;;;;;;3.00;3.00;;;;;18.39;41.48;99710.22;5071172;28;8858;-74
2023/08/08 08:56:20;;;;;;;;;3.40;3.40;;;;;18.57;40.91;99714.56;5071462;28;8858;-74
2023/08/08 08:58:52;;;;;;;;;3.20;3.20;;;;;18.18;41.79;99714.81;5071281;28;8842;-75
2023/08/08 09:01:24;;;;;;;;;1.20;1.20;;;;;18.72;41.01;99716.47;5071589;28;8843;-74
2023/08/08 09:03:53;;;;;;;;;3.00;2.40;;;;;18.29;41.81;99709.78;5071049;28;8834;-75
2023/08/08 09:06:24;;;;;;;;;0.80;0.80;;;;;17.51;42.16;99723.28;5071572;28;8850;-75
2023/08/08 09:08:53;;;;;;;;;2.80;2.80;;;;;18.19;41.34;99705.88;5086309;28;8872;-75
2023/08/08 09:11:32;;;;;;;;;3.20;3.20;;;;;18.31;39.61;99705.28;5070874;28;8972;-75
2023/08/08 09:14:02;;;;;;;;;2.00;2.00;;;;;17.19;40.85;99708.78;5070635;28;8874;-74
2023/08/08 09:16:31;;;;;;;;;3.20;3.20;;;;;16.79;42.21;99711.44;5035654;28;8854;-75
2023/08/08 09:19:03;;;;;;;;;2.40;2.40;;;;;16.18;42.84;99709.59;5069256;28;8866;-77
2023/08/08 09:21:31;;;;;;;;;2.60;2.60;;;;;16.47;42.25;99701.38;5083129;28;8983;-74
2023/08/08 09:24:01;;;;;;;;;5.00;4.40;;;;;16.72;43.20;99709.13;5031878;28;8983;-75
2023/08/08 09:26:30;;;;;;;;;3.60;3.60;;;;;16.32;43.07;99702.84;5052396;28;8938;-76
2023/08/08 09:28:59;;;;;;;;;3.60;3.60;;;;;16.19;42.77;99705.16;5084448;28;8902;-75
2023/08/08 09:31:30;;;;;;;;;3.00;2.40;;;;;16.77;43.23;99700.03;5071008;28;8842;-74
2023/08/08 09:33:59;;;;;;;;;2.00;2.00;;;;;17.23;41.56;99701.53;5069356;28;9720;-76
2023/08/08 09:36:28;;;;;;;;;4.60;4.00;;;;;17.13;42.40;99695.78;5070626;28;8915;-78
2023/08/08 09:39:02;;;;;;;;;3.00;3.00;;;;;17.94;41.88;99699.09;5070023;28;8931;-73
2023/08/08 09:41:31;;;;;;;;;3.80;3.60;;;;;17.84;41.75;99690.69;5102690;28;8866;-79
2023/08/08 09:44:01;;;;;;;;;5.00;5.00;;;;;18.24;40.64;99680.75;5070000;28;8870;-78
2023/08/08 09:46:32;;;;;;;;;3.60;3.60;;;;;17.74;41.43;99687.63;5052841;28;8843;-74
2023/08/08 09:49:02;;;;;;;;;5.80;5.80;;;;;17.53;42.21;99692.19;5035006;28;8850;-75
2023/08/08 09:51:31;;;;;;;;;4.00;4.00;;;;;17.58;42.66;99690.16;5102857;28;8862;-75
2023/08/08 09:54:01;;;;;;;;;3.20;3.00;;;;;17.30;42.61;99687.09;5070303;28;8877;-76
2023/08/08 09:56:30;;;;;;;;;4.60;4.20;;;;;18.01;41.46;99687.22;5068466;28;8850;-76
2023/08/08 09:59:01;;;;;;;;;3.40;3.40;;;;;17.61;42.30;99675.88;5070103;28;9671;-76
2023/08/08 10:01:32;;;;;;;;;3.80;3.80;;;;;17.30;43.11;99673.78;5069961;28;9009;-75
2023/08/08 10:04:04;;;;;;;;;4.40;3.40;;;;;17.14;42.84;99685.09;5070039;28;9008;-76
2023/08/08 10:06:33;;;;;;;;;3.00;3.00;;;;;17.31;41.97;99681.69;5068388;28;9588;-76
2023/08/08 10:09:04;;;;;;;;;4.40;4.40;;;;;17.74;41.58;99673.47;5068439;28;8869;-75
2023/08/08 10:11:34;;;;;;;;;4.00;3.20;;;;;17.86;41.69;99672.03;5093421;28;8872;-74
2023/08/08 10:14:04;;;;;;;;;3.60;3.00;;;;;18.03;41.14;99671.19;5049449;28;8856;-74
2023/08/08 10:16:34;;;;;;;;;3.20;3.20;;;;;18.03;41.25;99674.72;5081507;28;8845;-76
2023/08/08 10:19:05;;;;;;;;;4.00;4.00;;;;;17.90;41.41;99677.09;5049425;28;8845;-76
2023/08/08 10:21:35;;;;;;;;;9.20;7.80;;;;;18.25;42.17;99673.63;5049447;28;8849;-78
2023/08/08 10:24:07;;;;;;;;;4.00;2.80;;;;;18.80;39.92;99659.28;5049338;28;9621;-76
2023/08/08 10:26:52;;;;;;;;;3.40;3.40;;;;;17.90;40.21;99668.25;5047131;28;8884;-77
2023/08/08 10:29:22;;;;;;;;;4.00;4.00;;;;;18.06;40.26;99663.06;5049488;28;8841;-75
2023/08/08 10:32:00;;;;;;;;;2.80;2.80;;;;;18.76;39.70;99671.84;5066817;28;8998;-77
2023/08/08 10:34:39;;;;;;;;;4.00;4.00;;;;;19.24;37.88;99672.88;5049196;28;8865;-76
2023/08/08 10:37:11;;;;;;;;;5.20;4.20;;;;;19.47;38.62;99666.25;5049096;28;9732;-75
2023/08/08 10:39:53;;;;;;;;;4.00;3.00;;;;;19.18;38.35;99669.66;5080804;28;8894;-75
2023/08/08 10:42:24;;;;;;;;;3.60;3.00;;;;;19.58;37.84;99667.50;5081645;28;9720;-78
2023/08/08 10:44:54;;;;;;;;;5.80;5.80;;;;;19.19;38.29;99677.56;5052610;28;9653;-75
2023/08/08 10:47:25;;;;;;;;;3.20;3.20;;;;;18.52;39.30;99671.38;5068943;28;8854;-78
2023/08/08 10:49:59;;;;;;;;;4.20;3.40;;;;;17.98;39.75;99672.25;5068735;28;8831;-74
2023/08/08 10:52:28;;;;;;;;;1.80;1.80;;;;;18.33;38.44;99677.63;5067672;28;8915;-77
2023/08/08 10:54:57;;;;;;;;;2.20;2.20;;;;;17.78;39.74;99680.38;5068626;28;8847;-76
2023/08/08 10:57:26;;;;;;;;;6.20;6.00;;;;;18.43;39.45;99680.69;5084039;28;9003;-75
2023/08/08 10:59:55;;;;;;;;;3.80;3.80;;;;;19.00;39.39;99671.53;5068697;28;8850;-74
2023/08/08 11:02:26;;;;;;;;;2.40;2.40;;;;;19.20;36.75;99678.47;5083919;28;9726;-76
2023/08/08 11:04:56;;;;;;;;;3.60;3.60;;;;;18.99;37.70;99675.13;5068380;28;8858;-74
2023/08/08 11:07:28;;;;;;;;;3.40;2.20;;;;;19.68;37.62;99679.34;5068704;28;8834;-78
2023/08/08 11:09:59;;;;;;;;;1.40;1.40;;;;;19.66;36.02;99676.75;5068320;28;8876;-77
2023/08/08 11:12:27;;;;;;;;;5.00;3.80;;;;;18.54;37.45;99675.66;5068559;28;8850;-76
2023/08/08 11:14:56;;;;;;;;;5.00;3.80;;;;;18.79;37.07;99677.06;5083599;28;8851;-78
2023/08/08 11:17:26;;;;;;;;;3.20;3.20;;;;;19.26;37.50;99673.63;5068393;28;9722;-75
2023/08/08 11:19:56;;;;;;;;;2.00;2.00;;;;;19.78;36.66;99669.88;5068664;28;8858;-75
2023/08/08 11:22:25;;;;;;;;;3.80;3.80;;;;;20.28;35.92;99660.75;5068688;28;9604;-75
2023/08/08 11:24:57;;;;;;;;;5.40;5.00;;;;;20.37;35.58;99664.69;5067215;28;8862;-74
2023/08/08 11:27:26;;;;;;;;;2.00;2.00;;;;;20.10;35.10;99665.34;5066989;28;8901;-77
2023/08/08 11:29:58;;;;;;;;;3.40;3.40;;;;;20.36;35.95;99662.09;5068795;28;8814;-74
2023/08/08 11:32:29;;;;;;;;;5.20;3.80;;;;;20.47;35.28;99663.16;5068633;28;8884;-79
2023/08/08 11:34:58;;;;;;;;;2.20;2.20;;;;;20.97;34.41;99650.34;5071900;28;8839;-77
2023/08/08 11:37:27;;;;;;;;;5.20;4.20;;;;;20.89;33.47;99657.97;5071676;28;8873;-76
2023/08/08 11:39:56;;;;;;;;;3.00;3.00;;;;;21.00;33.72;99660.00;5068807;28;9611;-76
2023/08/08 11:42:25;;;;;;;;;3.60;3.00;;;;;20.75;33.61;99657.97;5068740;28;8889;-75
2023/08/08 11:44:54;;;;;;;;;6.00;6.00;;;;;20.61;34.06;99645.44;5068458;28;8959;-76
2023/08/08 11:47:25;;;;;;;;;2.80;2.40;;;;;20.88;34.50;99640.22;5068046;28;8878;-76
2023/08/08 11:49:58;;;;;;;;;2.60;2.60;;;;;21.39;33.74;99645.03;5068394;28;8850;-78
2023/08/08 11:52:26;;;;;;;;;5.40;5.00;;;;;21.24;33.13;99647.75;5070047;28;8877;-76
2023/08/08 11:54:55;;;;;;;;;5.00;5.00;;;;;21.86;33.04;99641.09;5036908;28;8870;-76
2023/08/08 11:57:24;;;;;;;;;2.60;2.60;;;;;21.73;31.52;99649.09;5070467;28;8947;-76